createdAt,value
2018-12-11T00:01:35.329Z,2.20
2018-12-11T00:04:03.534Z,2.30
2018-12-11T00:06:31.773Z,2.30
2018-12-11T00:08:59.997Z,2.30
2018-12-11T00:11:28.267Z,2.30
2018-12-11T00:13:56.531Z,2.30
2018-12-11T00:16:24.815Z,2.20
2018-12-11T00:18:53.351Z,2.30
2018-12-11T00:21:21.677Z,2.20
2018-12-11T00:23:49.851Z,2.20
2018-12-11T00:26:18.026Z,2.20
2018-12-11T00:28:46.312Z,2.30
2018-12-11T00:31:14.573Z,2.30
2018-12-11T00:33:42.857Z,2.30
2018-12-11T00:36:11.093Z,2.30
2018-12-11T00:38:39.391Z,2.30
2018-12-11T00:41:07.729Z,2.40
2018-12-11T00:43:35.952Z,2.40
2018-12-11T00:46:04.221Z,2.30
2018-12-11T00:48:32.403Z,2.40
2018-12-11T00:51:00.962Z,2.40
2018-12-11T00:53:29.160Z,2.40
2018-12-11T00:55:57.422Z,2.30
2018-12-11T00:58:25.706Z,2.30
2018-12-11T01:00:53.998Z,2.30
2018-12-11T01:03:22.255Z,2.20
2018-12-11T01:05:50.537Z,2.10
2018-12-11T01:08:18.696Z,2.20
2018-12-11T01:10:46.996Z,2.30
2018-12-11T01:13:15.251Z,2.20
2018-12-11T01:15:43.445Z,2.20
2018-12-11T01:18:11.703Z,2.10
2018-12-11T01:20:39.895Z,2.10
2018-12-11T01:23:08.153Z,2.20
2018-12-11T01:25:36.637Z,2.30
2018-12-11T01:28:04.993Z,2.20
2018-12-11T01:30:33.236Z,2.20
2018-12-11T01:33:01.390Z,2.20
2018-12-11T01:35:29.566Z,2.20
2018-12-11T01:37:57.797Z,2.20
2018-12-11T01:40:26.077Z,2.20
2018-12-11T01:42:54.241Z,2.10
2018-12-11T01:45:22.452Z,2.10
2018-12-11T01:47:50.734Z,2.10
2018-12-11T01:50:18.984Z,2.20
2018-12-11T01:52:47.204Z,2.10
2018-12-11T01:55:15.374Z,2.10
2018-12-11T01:57:43.652Z,2.10
2018-12-11T02:00:11.910Z,2.10
2018-12-11T02:02:40.256Z,2.10
2018-12-11T02:05:08.468Z,2.10
2018-12-11T02:07:36.706Z,2.20
2018-12-11T02:10:05.387Z,2.10
2018-12-11T02:12:33.723Z,2.10
2018-12-11T02:15:01.983Z,2.10
2018-12-11T02:17:30.160Z,2.20
2018-12-11T02:19:58.381Z,2.20
2018-12-11T02:22:26.973Z,2.10
2018-12-11T02:24:55.248Z,2.10
2018-12-11T02:27:23.560Z,2.20
2018-12-11T02:29:51.801Z,2.40
2018-12-11T02:32:20.081Z,2.30
2018-12-11T02:34:48.435Z,2.20
2018-12-11T02:37:17.066Z,2.20
2018-12-11T02:39:45.426Z,2.10
2018-12-11T02:42:13.677Z,2.10
2018-12-11T02:44:41.964Z,2.20
2018-12-11T02:47:10.140Z,2.30
2018-12-11T02:49:38.365Z,2.20
2018-12-11T02:52:06.576Z,2.20
2018-12-11T02:54:34.808Z,2.30
2018-12-11T02:57:03.030Z,2.30
2018-12-11T02:59:31.255Z,2.30
2018-12-11T03:01:59.416Z,2.30
2018-12-11T03:04:27.651Z,2.40
2018-12-11T03:06:55.820Z,2.40
2018-12-11T03:09:23.992Z,2.40
2018-12-11T03:11:52.270Z,2.50
2018-12-11T03:14:20.511Z,2.40
2018-12-11T03:16:48.684Z,2.60
2018-12-11T03:19:16.883Z,2.60
2018-12-11T03:21:45.080Z,2.40
2018-12-11T03:24:13.307Z,2.50
2018-12-11T03:26:41.764Z,2.40
2018-12-11T03:29:09.993Z,2.50
2018-12-11T03:31:38.283Z,2.50
2018-12-11T03:34:06.542Z,2.60
2018-12-11T03:36:34.828Z,2.50
2018-12-11T03:39:03.282Z,2.50
2018-12-11T03:41:31.552Z,2.60
2018-12-11T03:43:59.713Z,2.60
2018-12-11T03:46:28.132Z,2.60
2018-12-11T03:48:56.337Z,2.60
2018-12-11T03:51:25.252Z,2.50
2018-12-11T03:53:53.673Z,2.60
2018-12-11T03:56:21.969Z,2.60
2018-12-11T03:58:50.157Z,2.70
2018-12-11T04:01:18.398Z,2.60
2018-12-11T04:03:46.674Z,2.60
2018-12-11T04:06:14.947Z,2.60
2018-12-11T04:08:43.161Z,2.60
2018-12-11T04:11:11.394Z,2.60
2018-12-11T04:13:39.573Z,2.70
2018-12-11T04:16:07.897Z,2.60
2018-12-11T04:18:36.097Z,2.60
2018-12-11T04:21:04.416Z,2.70
2018-12-11T04:23:32.677Z,2.70
2018-12-11T04:26:00.994Z,2.80
2018-12-11T04:28:29.218Z,2.80
2018-12-11T04:30:57.414Z,2.70
2018-12-11T04:33:25.663Z,2.80
2018-12-11T04:35:53.876Z,2.70
2018-12-11T04:38:22.129Z,2.70
2018-12-11T04:40:50.401Z,2.80
2018-12-11T04:43:18.678Z,2.70
2018-12-11T04:45:46.885Z,2.80
2018-12-11T04:48:15.224Z,2.80
2018-12-11T04:50:43.494Z,2.80
2018-12-11T04:53:11.720Z,2.80
2018-12-11T04:55:39.939Z,2.80
2018-12-11T04:58:08.149Z,2.70
2018-12-11T05:00:36.396Z,2.70
2018-12-11T05:03:04.668Z,2.70
2018-12-11T05:05:32.957Z,2.70
2018-12-11T05:08:03.572Z,2.70
2018-12-11T05:10:31.757Z,2.70
2018-12-11T05:12:59.945Z,2.80
2018-12-11T05:15:28.151Z,2.70
2018-12-11T05:17:56.341Z,2.80
2018-12-11T05:20:24.575Z,2.70
2018-12-11T05:22:52.771Z,2.70
2018-12-11T05:25:21.000Z,2.70
2018-12-11T05:27:49.172Z,2.70
2018-12-11T05:30:17.432Z,2.70
2018-12-11T05:32:45.676Z,2.80
2018-12-11T05:35:13.931Z,2.80
2018-12-11T05:37:42.213Z,2.80
2018-12-11T05:40:10.426Z,2.80
2018-12-11T05:42:38.704Z,2.80
2018-12-11T05:45:07.027Z,2.80
2018-12-11T05:47:35.207Z,2.80
2018-12-11T05:50:04.261Z,2.80
2018-12-11T05:52:32.464Z,2.90
2018-12-11T05:55:00.965Z,2.90
2018-12-11T05:57:29.195Z,2.80
2018-12-11T05:59:57.463Z,2.80
2018-12-11T06:02:25.726Z,2.70
2018-12-11T06:04:54.021Z,2.70
2018-12-11T06:07:22.284Z,2.80
2018-12-11T06:09:50.556Z,2.70
2018-12-11T06:12:19.302Z,2.70
2018-12-11T06:14:47.521Z,2.70
2018-12-11T06:17:15.688Z,2.70
2018-12-11T06:19:43.969Z,2.60
2018-12-11T06:22:12.165Z,2.60
2018-12-11T06:24:40.666Z,2.60
2018-12-11T06:27:08.914Z,2.70
2018-12-11T06:29:37.108Z,2.70
2018-12-11T06:32:06.116Z,2.60
2018-12-11T06:34:34.294Z,2.70
2018-12-11T06:37:02.721Z,2.60
2018-12-11T06:39:30.996Z,2.60
2018-12-11T06:41:59.287Z,2.60
2018-12-11T06:44:27.547Z,2.60
2018-12-11T06:46:56.537Z,2.60
2018-12-11T06:49:25.449Z,2.80
2018-12-11T06:51:53.698Z,2.80
2018-12-11T06:54:21.949Z,2.90
2018-12-11T06:56:50.198Z,2.80
2018-12-11T06:59:18.400Z,2.80
2018-12-11T07:01:46.597Z,2.80
2018-12-11T07:04:14.882Z,2.80
2018-12-11T07:06:43.139Z,3.10
2018-12-11T07:09:11.423Z,2.90
2018-12-11T07:11:40.475Z,3.00
2018-12-11T07:14:08.679Z,3.00
2018-12-11T07:16:36.903Z,3.00
2018-12-11T07:19:05.224Z,2.80
2018-12-11T07:21:33.434Z,2.80
2018-12-11T07:24:01.688Z,2.70
2018-12-11T07:26:29.922Z,2.90
2018-12-11T07:28:58.137Z,2.50
2018-12-11T07:31:26.313Z,2.70
2018-12-11T07:33:54.525Z,2.60
2018-12-11T07:36:22.752Z,2.50
2018-12-11T07:38:50.919Z,2.50
2018-12-11T07:41:19.179Z,2.60
2018-12-11T07:43:47.481Z,2.70
2018-12-11T07:46:15.753Z,2.60
2018-12-11T07:48:44.037Z,2.50
2018-12-11T07:51:12.252Z,2.40
2018-12-11T07:53:40.481Z,2.60
2018-12-11T07:56:08.660Z,2.50
2018-12-11T07:58:36.851Z,2.60
2018-12-11T08:01:05.101Z,2.50
2018-12-11T08:03:33.381Z,2.30
2018-12-11T08:06:01.650Z,2.40
2018-12-11T08:08:29.909Z,2.50
2018-12-11T08:10:58.102Z,2.40
2018-12-11T08:13:26.402Z,2.40
2018-12-11T08:15:54.656Z,2.40
2018-12-11T08:25:10.583Z,2.30
2018-12-11T08:27:38.748Z,2.30
2018-12-11T08:30:07.516Z,2.30
2018-12-11T08:32:35.812Z,2.30
2018-12-11T08:35:04.514Z,2.20
2018-12-11T08:37:32.790Z,2.20
2018-12-11T08:40:01.480Z,2.40
2018-12-11T08:42:29.689Z,2.30
2018-12-11T08:44:59.284Z,2.20
2018-12-11T08:47:27.923Z,2.20
2018-12-11T08:49:56.156Z,2.20
2018-12-11T08:52:24.648Z,2.30
2018-12-11T08:54:53.008Z,2.20
2018-12-11T08:57:21.477Z,2.30
2018-12-11T08:59:49.697Z,2.10
2018-12-11T09:02:17.956Z,2.20
2018-12-11T09:04:46.169Z,2.20
2018-12-11T09:07:14.438Z,2.20
2018-12-11T09:09:42.772Z,2.20
2018-12-11T09:12:11.773Z,2.20
2018-12-11T09:14:40.030Z,2.10
2018-12-11T09:17:10.264Z,2.10
2018-12-11T09:19:39.774Z,2.10
2018-12-11T09:22:08.134Z,2.00
2018-12-11T09:24:36.677Z,2.20
2018-12-11T09:27:05.058Z,2.00
2018-12-11T09:29:33.805Z,2.10
2018-12-11T09:32:02.942Z,2.10
2018-12-11T09:34:31.268Z,2.00
2018-12-11T09:36:59.477Z,2.10
2018-12-11T09:39:27.654Z,2.20
2018-12-11T09:41:55.840Z,2.10
2018-12-11T09:44:24.108Z,2.00
2018-12-11T09:46:52.272Z,2.10
2018-12-11T09:49:20.552Z,2.00
2018-12-11T09:51:48.818Z,2.10
2018-12-11T09:54:17.191Z,2.20
2018-12-11T09:56:45.741Z,2.00
2018-12-11T09:59:14.194Z,1.90
2018-12-11T10:01:46.179Z,2.10
2018-12-11T10:04:15.664Z,1.90
2018-12-11T10:09:19.543Z,2.20
2018-12-11T10:11:47.746Z,2.20
2018-12-11T10:14:15.908Z,2.10
2018-12-11T10:16:44.190Z,2.20
2018-12-11T10:19:12.383Z,2.10
2018-12-11T10:21:40.625Z,2.20
2018-12-11T10:24:08.899Z,2.20
2018-12-11T10:26:37.258Z,2.10
2018-12-11T10:29:05.516Z,2.20
2018-12-11T10:31:33.830Z,2.20
2018-12-11T10:34:02.169Z,2.30
2018-12-11T10:36:30.482Z,2.20
2018-12-11T10:38:58.649Z,2.40
2018-12-11T10:41:26.817Z,2.40
2018-12-11T10:43:55.104Z,2.20
2018-12-11T10:46:23.385Z,2.40
2018-12-11T10:48:51.548Z,2.30
2018-12-11T10:51:20.250Z,2.40
2018-12-11T10:53:49.233Z,2.40
2018-12-11T10:56:18.230Z,2.50
2018-12-11T10:58:46.497Z,2.40
2018-12-11T11:01:18.098Z,2.40
2018-12-11T11:03:46.632Z,2.40
2018-12-11T11:06:14.795Z,2.40
2018-12-11T11:08:43.711Z,2.30
2018-12-11T11:11:12.073Z,2.20
2018-12-11T11:13:40.254Z,2.30
2018-12-11T11:16:10.396Z,2.30
2018-12-11T11:18:38.955Z,2.50
2018-12-11T11:21:07.282Z,2.40
2018-12-11T11:23:35.512Z,2.50
2018-12-11T11:26:04.160Z,2.40
2018-12-11T11:28:32.370Z,2.50
2018-12-11T11:31:00.566Z,2.60
2018-12-11T11:33:28.905Z,2.50
2018-12-11T11:35:57.086Z,2.50
2018-12-11T11:38:25.489Z,2.60
2018-12-11T11:40:53.733Z,2.60
2018-12-11T11:43:21.901Z,2.60
2018-12-11T11:45:50.063Z,2.70
2018-12-11T11:48:18.351Z,2.60
2018-12-11T11:50:46.543Z,2.70
2018-12-11T11:53:14.809Z,2.70
2018-12-11T11:55:43.088Z,2.80
2018-12-11T11:58:12.182Z,2.80
2018-12-11T12:00:40.533Z,2.80
2018-12-11T12:03:08.981Z,2.80
2018-12-11T12:05:37.247Z,2.70
2018-12-11T12:08:05.471Z,2.70
2018-12-11T12:10:33.888Z,2.80
2018-12-11T12:13:02.131Z,2.70
2018-12-11T12:15:30.322Z,2.90
2018-12-11T12:17:59.357Z,2.90
2018-12-11T12:20:27.524Z,2.80
2018-12-11T12:22:56.619Z,3.00
2018-12-11T12:25:25.124Z,3.00
2018-12-11T12:27:53.374Z,3.00
2018-12-11T12:30:23.242Z,3.00
2018-12-11T12:32:51.526Z,3.00
2018-12-11T12:35:19.752Z,3.10
2018-12-11T12:37:48.010Z,3.10
2018-12-11T12:40:17.147Z,3.20
2018-12-11T12:42:45.316Z,3.10
2018-12-11T12:45:13.608Z,3.30
2018-12-11T12:47:41.899Z,3.00
2018-12-11T12:50:10.114Z,3.10
2018-12-11T12:52:38.283Z,3.10
2018-12-11T12:55:06.605Z,3.10
2018-12-11T12:57:34.782Z,3.10
2018-12-11T13:00:03.986Z,3.10
2018-12-11T13:02:32.175Z,3.10
2018-12-11T13:05:00.429Z,3.00
2018-12-11T13:07:28.679Z,3.00
2018-12-11T13:09:56.979Z,3.10
2018-12-11T13:12:25.290Z,3.10
2018-12-11T13:14:53.543Z,3.30
2018-12-11T13:17:21.732Z,3.20
2018-12-11T13:19:49.909Z,3.20
2018-12-11T13:22:18.162Z,3.20
2018-12-11T13:24:46.425Z,3.20
2018-12-11T13:27:14.599Z,3.10
2018-12-11T13:29:42.783Z,3.10
2018-12-11T13:32:11.039Z,3.10
2018-12-11T13:34:39.217Z,3.10
2018-12-11T13:37:07.487Z,3.10
2018-12-11T13:39:35.778Z,3.10
2018-12-11T13:42:05.218Z,3.10
2018-12-11T13:44:34.379Z,3.10
2018-12-11T13:47:02.712Z,3.10
2018-12-11T13:49:30.889Z,3.30
2018-12-11T13:51:59.367Z,3.20
2018-12-11T13:54:27.543Z,3.10
2018-12-11T13:56:55.712Z,3.10
2018-12-11T13:59:23.903Z,3.10
2018-12-11T14:01:52.068Z,3.20
2018-12-11T14:04:20.404Z,3.10
2018-12-11T14:06:48.873Z,3.20
2018-12-11T14:12:14.894Z,3.20
2018-12-11T14:14:43.157Z,3.20
2018-12-11T14:17:11.440Z,3.20
2018-12-11T14:19:39.706Z,3.10
2018-12-11T14:22:07.989Z,3.20
2018-12-11T14:24:36.188Z,3.10
2018-12-11T14:27:04.465Z,3.20
2018-12-11T14:29:32.871Z,3.20
2018-12-11T14:32:01.345Z,3.20
2018-12-11T14:34:29.557Z,3.10
2018-12-11T14:36:57.745Z,3.00
2018-12-11T14:39:26.029Z,3.00
2018-12-11T14:41:54.261Z,3.00
2018-12-11T14:44:22.565Z,2.90
2018-12-11T14:46:50.852Z,2.90
2018-12-11T14:49:19.045Z,2.90
2018-12-11T14:51:47.209Z,2.80
2018-12-11T14:54:15.832Z,2.90
2018-12-11T14:56:47.354Z,2.80
2018-12-11T14:59:17.609Z,2.90
2018-12-11T15:01:47.003Z,2.80
2018-12-11T15:04:17.142Z,2.90
2018-12-11T15:06:52.906Z,2.90
2018-12-11T15:09:27.207Z,3.00
2018-12-11T15:11:57.312Z,2.90
2018-12-11T15:14:28.429Z,3.00
2018-12-11T15:16:57.013Z,2.90
2018-12-11T15:19:25.777Z,2.70
2018-12-11T15:21:54.252Z,2.70
2018-12-11T15:24:24.047Z,2.70
2018-12-11T15:26:53.899Z,2.80
2018-12-11T15:29:22.141Z,2.90
2018-12-11T15:31:50.397Z,2.80
2018-12-11T15:34:18.608Z,2.40
2018-12-11T15:36:46.878Z,2.50
2018-12-11T15:39:15.146Z,2.20
2018-12-11T15:41:43.314Z,2.20
2018-12-11T15:44:11.502Z,2.30
2018-12-11T15:46:40.042Z,2.40
2018-12-11T15:49:08.231Z,2.20
2018-12-11T15:51:36.572Z,2.10
2018-12-11T15:54:04.792Z,2.10
2018-12-11T15:56:33.005Z,2.10
2018-12-11T15:59:01.297Z,2.20
2018-12-11T16:01:29.678Z,2.10
2018-12-11T16:03:57.950Z,2.10
2018-12-11T16:06:26.111Z,2.10
2018-12-11T16:08:54.479Z,2.10
2018-12-11T16:11:22.726Z,2.10
2018-12-11T16:13:50.914Z,2.20
2018-12-11T16:16:19.217Z,2.20
2018-12-11T16:18:47.390Z,2.20
2018-12-11T16:21:15.627Z,2.20
2018-12-11T16:23:44.003Z,2.20
2018-12-11T16:26:12.277Z,2.20
2018-12-11T16:28:40.445Z,2.20
2018-12-11T16:31:08.887Z,2.20
2018-12-11T16:33:37.099Z,2.20
2018-12-11T16:36:05.316Z,2.40
2018-12-11T16:38:33.537Z,2.30
2018-12-11T16:41:01.729Z,2.30
2018-12-11T16:43:29.994Z,2.30
2018-12-11T16:45:58.193Z,2.30
2018-12-11T16:48:26.452Z,2.30
2018-12-11T16:50:54.732Z,2.40
2018-12-11T16:53:22.996Z,2.40
2018-12-11T16:55:51.190Z,2.40
2018-12-11T16:58:19.452Z,2.40
2018-12-11T17:00:47.665Z,2.40
2018-12-11T17:03:15.947Z,2.30
2018-12-11T17:05:44.144Z,2.30
2018-12-11T17:08:12.455Z,2.40
2018-12-11T17:10:40.620Z,2.40
2018-12-11T17:13:08.892Z,2.40
2018-12-11T17:15:38.253Z,2.40
2018-12-11T17:18:06.689Z,2.40
2018-12-11T17:20:35.136Z,2.40
2018-12-11T17:23:03.339Z,2.40
2018-12-11T17:25:31.514Z,2.40
2018-12-11T17:27:59.789Z,2.40
2018-12-11T17:30:28.024Z,2.30
2018-12-11T17:32:56.412Z,2.30
2018-12-11T17:35:24.607Z,2.40
2018-12-11T17:37:52.846Z,2.30
2018-12-11T17:40:21.055Z,2.40
2018-12-11T17:42:49.288Z,2.40
2018-12-11T17:45:18.987Z,2.30
2018-12-11T17:47:47.162Z,2.30
2018-12-11T17:50:15.393Z,2.40
2018-12-11T17:52:43.668Z,2.30
2018-12-11T17:55:12.705Z,2.30
2018-12-11T17:57:40.982Z,2.30
2018-12-11T18:00:10.485Z,2.30
2018-12-11T18:02:41.019Z,2.30
2018-12-11T18:05:09.828Z,2.40
2018-12-11T18:07:38.079Z,2.40
2018-12-11T18:10:06.489Z,2.40
2018-12-11T18:12:34.728Z,2.40
2018-12-11T18:15:02.943Z,2.40
2018-12-11T18:17:32.118Z,2.40
2018-12-11T18:20:00.332Z,2.30
2018-12-11T18:22:28.536Z,2.30
2018-12-11T18:24:56.781Z,2.40
2018-12-11T18:27:25.084Z,2.30
2018-12-11T18:29:53.617Z,2.40
2018-12-11T18:32:25.100Z,2.30
2018-12-11T18:34:52.497Z,2.30
2018-12-11T18:37:20.918Z,2.30
2018-12-11T18:39:49.349Z,2.30
2018-12-11T18:42:18.138Z,2.30
2018-12-11T18:44:46.553Z,2.40
2018-12-11T18:47:15.192Z,2.40
2018-12-11T18:49:43.571Z,2.30
2018-12-11T18:52:12.424Z,2.30
2018-12-11T18:54:41.813Z,2.30
2018-12-11T18:57:11.068Z,2.30
2018-12-11T18:59:39.327Z,2.30
2018-12-11T19:02:07.662Z,2.30
2018-12-11T19:04:36.591Z,2.40
2018-12-11T19:07:04.943Z,2.30
2018-12-11T19:09:33.130Z,2.40
2018-12-11T19:12:01.313Z,2.30
2018-12-11T19:14:29.549Z,2.30
2018-12-11T19:16:57.812Z,2.30
2018-12-11T19:19:26.482Z,2.30
2018-12-11T19:21:55.351Z,2.30
2018-12-11T19:24:23.691Z,2.30
2018-12-11T19:26:52.056Z,2.20
2018-12-11T19:29:20.341Z,2.30
2018-12-11T19:31:48.680Z,2.20
2018-12-11T19:34:16.997Z,2.10
2018-12-11T19:36:45.289Z,2.20
2018-12-11T19:39:13.759Z,2.10
2018-12-11T19:41:41.935Z,2.10
2018-12-11T19:44:10.369Z,2.00
2018-12-11T19:46:40.155Z,2.00
2018-12-11T19:49:09.219Z,2.00
2018-12-11T19:51:37.540Z,2.00
2018-12-11T19:54:05.890Z,2.00
2018-12-11T19:56:34.410Z,2.00
2018-12-11T19:59:02.713Z,2.00
2018-12-11T20:01:31.007Z,2.00
2018-12-11T20:03:59.214Z,2.10
2018-12-11T20:06:27.756Z,2.10
2018-12-11T20:08:56.131Z,2.00
2018-12-11T20:11:24.934Z,2.10
2018-12-11T20:13:53.543Z,2.10
2018-12-11T20:16:21.766Z,2.10
2018-12-11T20:18:52.829Z,2.00
2018-12-11T20:21:21.132Z,2.10
2018-12-11T20:23:49.341Z,2.10
2018-12-11T20:26:21.660Z,2.10
2018-12-11T20:28:50.664Z,2.10
2018-12-11T20:31:18.899Z,2.10
2018-12-11T20:33:48.780Z,2.20
2018-12-11T20:36:18.579Z,2.20
2018-12-11T20:38:46.836Z,2.30
2018-12-11T20:41:15.423Z,2.20
2018-12-11T20:43:44.693Z,2.20
2018-12-11T20:46:13.084Z,2.20
2018-12-11T20:48:42.908Z,2.30
2018-12-11T20:51:12.003Z,2.20
2018-12-11T20:53:41.545Z,2.20
2018-12-11T20:56:09.887Z,2.20
2018-12-11T20:58:39.417Z,2.20
2018-12-11T21:01:09.412Z,2.20
2018-12-11T21:03:37.738Z,2.30
2018-12-11T21:06:08.622Z,2.20
2018-12-11T21:08:37.046Z,2.10
2018-12-11T21:11:05.979Z,2.20
2018-12-11T21:13:34.265Z,2.20
2018-12-11T21:16:02.666Z,2.20
2018-12-11T21:18:31.124Z,2.10
2018-12-11T21:20:59.503Z,2.20
2018-12-11T21:23:28.621Z,2.20
2018-12-11T21:25:57.752Z,2.20
2018-12-11T21:28:28.953Z,2.20
2018-12-11T21:30:58.234Z,2.20
2018-12-11T21:33:27.123Z,2.20
2018-12-11T21:35:55.911Z,2.20
2018-12-11T21:38:24.221Z,2.20
2018-12-11T21:40:53.288Z,2.20
2018-12-11T21:43:21.564Z,2.30
2018-12-11T21:45:50.331Z,2.20
2018-12-11T21:48:19.633Z,2.30
2018-12-11T21:50:49.033Z,2.20
2018-12-11T21:53:18.055Z,2.30
2018-12-11T21:55:46.323Z,2.20
2018-12-11T21:58:14.794Z,2.20
2018-12-11T22:00:43.086Z,2.20
2018-12-11T22:03:11.755Z,2.30
2018-12-11T22:05:41.749Z,2.30
2018-12-11T22:08:09.938Z,2.30
2018-12-11T22:10:38.412Z,2.30
2018-12-11T22:13:06.666Z,2.30
2018-12-11T22:15:34.955Z,2.20
2018-12-11T22:18:03.155Z,2.30
2018-12-11T22:20:31.423Z,2.30
2018-12-11T22:22:59.672Z,2.30
2018-12-11T22:25:27.873Z,2.30
2018-12-11T22:27:56.095Z,2.30
2018-12-11T22:30:24.386Z,2.30
2018-12-11T22:32:52.699Z,2.30
2018-12-11T22:35:21.038Z,2.30
2018-12-11T22:37:49.226Z,2.30
2018-12-11T22:40:17.471Z,2.30
2018-12-11T22:42:45.671Z,2.30
2018-12-11T22:45:13.936Z,2.30
2018-12-11T22:47:42.127Z,2.20
2018-12-11T22:50:12.530Z,2.30
2018-12-11T22:52:40.796Z,2.30
2018-12-11T22:55:08.981Z,2.30
2018-12-11T22:57:37.256Z,2.30
2018-12-11T23:00:08.841Z,2.30
2018-12-11T23:02:37.022Z,2.30
2018-12-11T23:05:05.609Z,2.30
2018-12-11T23:07:33.837Z,2.30
2018-12-11T23:10:02.526Z,2.30
2018-12-11T23:12:30.731Z,2.20
2018-12-11T23:14:58.967Z,2.30
2018-12-11T23:17:27.238Z,2.30
2018-12-11T23:19:55.434Z,2.20
2018-12-11T23:22:23.633Z,2.20
2018-12-11T23:24:52.100Z,2.30
2018-12-11T23:27:20.332Z,2.20
2018-12-11T23:29:48.524Z,2.20
2018-12-11T23:32:16.713Z,2.30
2018-12-11T23:34:44.959Z,2.20
2018-12-11T23:37:13.228Z,2.20
2018-12-11T23:39:41.392Z,2.20
2018-12-11T23:42:09.604Z,2.20
2018-12-11T23:44:37.760Z,2.20
2018-12-11T23:47:05.990Z,2.10
2018-12-11T23:49:34.196Z,2.20
2018-12-11T23:52:03.497Z,2.20
2018-12-11T23:54:31.679Z,2.20
2018-12-11T23:57:00.051Z,2.10
2018-12-11T23:59:29.323Z,2.10
